Time;durP1;ratioP1;P1;durP2;ratioP2;P2;SDS_P1;SDS_P2;PMS_P1;PMS_P2;Temp;Humidity;BMP_temperature;BMP_pressure;BME280_temperature;BME280_humidity;BME280_pressure;Samples;Min_cycle;Max_cycle;Signal;HPM_P1;HPM_P2
2021/12/25 00:00:18;;;;;;;15.85;14.25;;;;;;;4.89;93.33;100533.00;4970688;28;20030;-67
2021/12/25 00:02:44;;;;;;;17.42;15.63;;;;;;;4.85;93.11;100527.22;4975458;28;20091;-67
2021/12/25 00:05:11;;;;;;;16.70;14.90;;;;;;;4.88;93.06;100526.22;4982259;28;20031;-67
2021/12/25 00:07:37;;;;;;;16.83;15.13;;;;;;;4.88;93.07;100521.09;4980072;28;20066;-66
2021/12/25 00:10:04;;;;;;;17.83;16.02;;;;;;;4.86;93.04;100525.47;4971689;28;20066;-66
2021/12/25 00:12:30;;;;;;;17.15;15.38;;;;;;;4.80;93.46;100519.78;4969731;28;20049;-67
2021/12/25 00:14:56;;;;;;;17.55;15.75;;;;;;;4.83;93.32;100518.78;4968539;28;20078;-67
2021/12/25 00:17:21;;;;;;;17.05;15.27;;;;;;;4.83;93.77;100517.97;4951457;28;20519;-67
2021/12/25 00:19:47;;;;;;;17.63;15.93;;;;;;;4.74;93.28;100509.91;4971707;28;20045;-67
2021/12/25 00:22:12;;;;;;;17.70;15.90;;;;;;;4.76;93.48;100513.22;4970624;28;21319;-66
2021/12/25 00:24:42;;;;;;;18.63;16.70;;;;;;;4.75;93.78;100521.81;4966042;28;20023;-68
2021/12/25 00:30:22;;;;;;;17.95;16.15;;;;;;;4.70;93.47;100529.03;4980378;28;20596;-67
2021/12/25 00:32:52;;;;;;;17.58;15.77;;;;;;;4.71;93.19;100529.84;4970274;28;20074;-66
2021/12/25 00:35:18;;;;;;;16.85;15.15;;;;;;;4.71;93.59;100515.25;4981864;28;20038;-67
2021/12/25 00:37:44;;;;;;;17.15;15.40;;;;;;;4.70;93.51;100518.75;4989941;28;20047;-68
2021/12/25 00:40:09;;;;;;;17.20;15.40;;;;;;;4.67;93.65;100513.78;4978868;28;20054;-67
2021/12/25 00:42:35;;;;;;;17.50;15.70;;;;;;;4.66;93.50;100511.31;4983370;28;20062;-67
2021/12/25 00:45:00;;;;;;;16.52;14.82;;;;;;;4.68;93.59;100505.16;4972435;28;20026;-67
2021/12/25 00:47:26;;;;;;;16.23;14.55;;;;;;;4.68;93.69;100520.56;4990941;28;20157;-67
2021/12/25 00:49:51;;;;;;;16.55;14.85;;;;;;;4.69;93.42;100511.94;4990163;28;20032;-66
2021/12/25 00:52:16;;;;;;;17.15;15.35;;;;;;;4.69;93.54;100506.78;4990714;28;20042;-66
2021/12/25 00:54:42;;;;;;;16.73;14.95;;;;;;;4.68;93.58;100509.47;4986488;28;20026;-66
2021/12/25 00:57:08;;;;;;;18.00;16.10;;;;;;;4.68;93.59;100514.59;4990227;28;20053;-67
2021/12/25 00:59:33;;;;;;;16.50;14.80;;;;;;;4.60;93.56;100509.94;4986338;28;20141;-66
2021/12/25 01:01:59;;;;;;;15.27;13.68;;;;;;;4.57;93.37;100510.13;5000460;28;20032;-66
2021/12/25 01:04:25;;;;;;;15.27;13.63;;;;;;;4.56;93.44;100508.47;4991043;28;20030;-67
2021/12/25 01:06:51;;;;;;;15.05;13.43;;;;;;;4.56;93.42;100520.50;4990103;28;20031;-66
2021/12/25 01:09:16;;;;;;;15.32;13.65;;;;;;;4.57;93.65;100517.00;4979172;28;20103;-67
2021/12/25 01:11:45;;;;;;;15.40;13.63;;;;;;;4.56;93.65;100521.31;4990307;28;20033;-67
2021/12/25 01:14:22;;;;;;;16.05;14.40;;;;;;;4.53;93.05;100521.53;4966135;28;20032;-67
2021/12/25 01:22:49;;;;;;;18.75;15.82;;;;;;;4.52;93.28;100530.13;4987651;28;20077;-66
2021/12/25 01:28:28;;;;;;;18.20;15.90;;;;;;;4.50;93.69;100531.97;4992853;28;20038;-67
2021/12/25 01:30:59;;;;;;;19.50;17.50;;;;;;;4.47;93.58;100517.59;4983652;28;20481;-67
2021/12/25 01:34:09;;;;;;;21.95;19.60;;;;;;;4.44;93.58;100511.81;4989411;28;20504;-67
2021/12/25 01:36:32;;;;;;;20.67;18.52;;;;;;;4.42;93.82;100513.66;4983055;28;20487;-67
2021/12/25 01:49:23;;;;;;;22.13;19.88;;;;;;;4.41;93.98;100522.25;4979540;28;20433;-67
2021/12/25 01:51:49;;;;;;;23.15;20.92;;;;;;;4.37;93.79;100519.06;4971082;28;20056;-67
2021/12/25 01:54:14;;;;;;;23.38;21.08;;;;;;;4.33;94.00;100524.47;4973704;28;20577;-67
2021/12/25 01:56:40;;;;;;;24.15;21.75;;;;;;;4.26;93.69;100519.69;4967217;28;20049;-66
2021/12/25 01:59:05;;;;;;;23.98;21.67;;;;;;;4.31;93.88;100513.47;4956075;28;20045;-67
2021/12/25 02:01:31;;;;;;;23.63;21.33;;;;;;;4.27;93.97;100517.97;4983081;28;20027;-67
2021/12/25 02:03:57;;;;;;;24.02;21.63;;;;;;;4.28;94.03;100506.75;4977246;28;20123;-67
2021/12/25 02:06:22;;;;;;;23.92;21.42;;;;;;;4.25;93.79;100507.78;4990360;28;20061;-66
2021/12/25 02:08:48;;;;;;;24.27;21.85;;;;;;;4.26;93.94;100511.19;4985315;28;20038;-67
2021/12/25 02:11:14;;;;;;;23.60;21.20;;;;;;;4.27;93.99;100505.13;4988722;28;20106;-66
2021/12/25 02:13:41;;;;;;;24.08;21.58;;;;;;;4.25;93.63;100507.78;4980357;28;20456;-67
2021/12/25 02:16:13;;;;;;;23.65;21.08;;;;;;;4.22;93.91;100513.09;4974030;28;20068;-66
2021/12/25 02:21:30;;;;;;;22.92;20.63;;;;;;;4.16;93.80;100508.31;4968251;28;20042;-66
2021/12/25 02:23:58;;;;;;;21.23;19.02;;;;;;;4.09;93.21;100506.22;4972171;28;20081;-67
2021/12/25 02:26:24;;;;;;;19.85;16.95;;;;;;;4.07;93.20;100508.91;4973172;28;20129;-67
2021/12/25 02:28:50;;;;;;;20.30;18.13;;;;;;;3.97;93.42;100518.06;4954830;28;20150;-66
2021/12/25 02:31:16;;;;;;;19.75;17.75;;;;;;;3.88;93.03;100518.56;4980147;28;20038;-66
2021/12/25 02:33:42;;;;;;;17.83;16.02;;;;;;;3.78;92.87;100502.06;4982992;28;20039;-67
2021/12/25 02:36:12;;;;;;;18.83;16.83;;;;;;;3.83;93.46;100521.41;4977936;28;20035;-67
2021/12/25 02:38:38;;;;;;;18.77;16.77;;;;;;;3.82;93.25;100513.81;4972211;28;20070;-66
2021/12/25 02:41:05;;;;;;;18.63;16.63;;;;;;;3.80;93.10;100525.91;4973011;28;20065;-66
2021/12/25 02:43:30;;;;;;;17.40;15.65;;;;;;;3.75;93.07;100523.59;4972790;28;20033;-67
2021/12/25 02:46:01;;;;;;;18.15;16.25;;;;;;;3.67;92.90;100518.94;4973259;28;20031;-67
2021/12/25 02:48:27;;;;;;;17.58;15.70;;;;;;;3.63;92.70;100530.28;4972945;28;20077;-67
2021/12/25 02:50:53;;;;;;;17.70;15.43;;;;;;;3.57;92.47;100528.06;4973042;28;20054;-66
2021/12/25 02:53:18;;;;;;;20.02;17.30;;;;;;;3.53;92.41;100524.00;4954545;28;20019;-67
2021/12/25 02:55:45;;;;;;;18.70;15.90;;;;;;;3.43;91.68;100515.19;4972615;28;20034;-67
2021/12/25 02:58:12;;;;;;;19.90;17.23;;;;;;;3.37;91.86;100520.66;4972629;28;20507;-67
2021/12/25 03:00:43;;;;;;;20.20;16.50;;;;;;;3.40;92.45;100523.06;4972760;28;20113;-67
2021/12/25 03:03:09;;;;;;;20.58;15.75;;;;;;;3.34;91.50;100523.41;4972346;28;20042;-67
2021/12/25 03:05:35;;;;;;;20.02;16.90;;;;;;;3.34;92.61;100519.09;4972742;28;20034;-67
2021/12/25 03:08:03;;;;;;;19.65;16.20;;;;;;;3.33;92.43;100521.75;4973140;28;20049;-67
2021/12/25 03:10:31;;;;;;;19.15;15.98;;;;;;;3.29;92.03;100533.09;4972879;28;20022;-67
2021/12/25 03:13:17;;;;;;;18.67;14.87;;;;;;;3.30;92.52;100538.13;4971672;28;20645;-67
2021/12/25 03:15:47;;;;;;;19.50;16.33;;;;;;;3.25;91.98;100542.69;4965353;28;20033;-67
2021/12/25 03:18:19;;;;;;;19.20;17.02;;;;;;;3.23;91.71;100543.69;4972189;28;20041;-67
2021/12/25 03:20:47;;;;;;;20.52;17.52;;;;;;;3.14;91.96;100543.25;4955237;28;20033;-67
2021/12/25 03:23:15;;;;;;;18.98;16.02;;;;;;;3.11;91.74;100543.44;4972309;28;20110;-67
2021/12/25 03:25:42;;;;;;;19.63;16.38;;;;;;;3.10;92.04;100544.38;4971691;28;20164;-67
2021/12/25 03:28:08;;;;;;;19.60;16.92;;;;;;;3.04;91.97;100537.03;4962476;28;20043;-67
2021/12/25 03:30:38;;;;;;;19.48;17.33;;;;;;;3.04;92.03;100551.53;4972252;28;20170;-67
2021/12/25 03:33:05;;;;;;;19.13;17.02;;;;;;;2.94;91.50;100551.25;4957952;28;20018;-67
2021/12/25 03:35:30;;;;;;;19.98;17.88;;;;;;;2.92;91.32;100558.16;4964738;28;20085;-67
2021/12/25 03:37:55;;;;;;;20.83;18.63;;;;;;;2.92;91.43;100560.72;4967594;28;20566;-67
2021/12/25 03:40:21;;;;;;;20.70;17.73;;;;;;;2.93;91.98;100559.84;4976747;28;20050;-67
2021/12/25 03:42:46;;;;;;;20.02;17.80;;;;;;;2.90;91.71;100565.09;4973950;28;20041;-67
2021/12/25 03:45:12;;;;;;;20.83;18.40;;;;;;;2.82;91.23;100564.72;4991661;28;20026;-69
2021/12/25 03:47:39;;;;;;;20.40;17.15;;;;;;;2.83;91.89;100561.22;4991389;28;20030;-66
2021/12/25 03:53:22;;;;;;;20.65;17.83;;;;;;;2.74;91.63;100559.16;4991416;28;20076;-67
2021/12/25 03:58:32;;;;;;;20.13;17.48;;;;;;;2.73;91.40;100570.31;4991235;28;20041;-67
2021/12/25 04:01:04;;;;;;;22.40;17.90;;;;;;;2.67;91.64;100559.47;4973566;28;20029;-67
2021/12/25 04:03:45;;;;;;;20.27;18.02;;;;;;;2.70;91.45;100570.47;4989947;28;20038;-67
2021/12/25 04:06:10;;;;;;;21.80;18.92;;;;;;;2.59;91.39;100574.44;4990365;28;20131;-67
2021/12/25 04:08:42;;;;;;;22.02;19.63;;;;;;;2.54;90.50;100584.09;4990718;28;20058;-67
2021/12/25 04:11:14;;;;;;;22.33;19.30;;;;;;;2.50;91.01;100582.56;4990740;28;20386;-67
2021/12/25 04:13:39;;;;;;;24.45;20.52;;;;;;;2.48;91.36;100586.97;4991325;28;20018;-67
2021/12/25 04:16:04;;;;;;;22.63;20.23;;;;;;;2.46;91.05;100586.19;4990541;28;20036;-67
2021/12/25 04:18:30;;;;;;;22.80;20.13;;;;;;;2.42;91.00;100597.50;4991081;28;20058;-67
2021/12/25 04:20:55;;;;;;;23.95;20.35;;;;;;;2.41;91.48;100600.97;4990869;28;20030;-67
2021/12/25 04:23:25;;;;;;;24.30;21.00;;;;;;;2.38;91.35;100603.69;4991091;28;20034;-66
2021/12/25 04:25:52;;;;;;;24.90;22.02;;;;;;;2.32;90.53;100606.56;4990851;28;20026;-67
2021/12/25 04:28:32;;;;;;;26.05;23.05;;;;;;;2.28;91.15;100612.72;4989389;28;20453;-68
2021/12/25 05:05:40;;;;;;;24.83;20.83;;;;;;;1.79;91.00;100635.63;4994183;28;20045;-67
2021/12/25 05:08:07;;;;;;;23.80;20.50;;;;;;;1.80;91.07;100647.50;4985860;28;20034;-66
2021/12/25 05:10:33;;;;;;;24.63;20.77;;;;;;;1.78;91.05;100639.09;4984417;28;20445;-66
2021/12/25 05:12:58;;;;;;;24.52;21.77;;;;;;;1.77;90.76;100647.63;4994390;28;20058;-67
2021/12/25 05:15:23;;;;;;;24.15;20.25;;;;;;;1.76;91.17;100640.88;4994468;28;20059;-67
2021/12/25 05:17:49;;;;;;;23.15;19.65;;;;;;;1.74;90.87;100637.56;4982650;28;20037;-67
2021/12/25 05:20:14;;;;;;;24.15;20.98;;;;;;;1.65;90.80;100640.56;4993487;28;20054;-71
2021/12/25 05:22:39;;;;;;;22.88;19.95;;;;;;;1.65;90.52;100648.22;4994266;28;20035;-70
2021/12/25 05:25:06;;;;;;;23.45;19.85;;;;;;;1.67;90.50;100646.44;4993689;28;20030;-67
2021/12/25 05:27:31;;;;;;;22.73;19.95;;;;;;;1.62;90.69;100651.78;4991957;28;20134;-67
2021/12/25 05:29:56;;;;;;;23.48;20.50;;;;;;;1.59;90.79;100650.16;4993890;28;20034;-67
2021/12/25 05:32:22;;;;;;;23.35;20.75;;;;;;;1.54;90.16;100653.84;4993433;28;20547;-67
2021/12/25 05:34:47;;;;;;;24.05;21.02;;;;;;;1.47;90.33;100650.75;4993793;28;20026;-67
2021/12/25 05:37:14;;;;;;;22.63;19.63;;;;;;;1.45;90.28;100665.34;4979054;28;20053;-66
2021/12/25 05:39:42;;;;;;;23.67;20.10;;;;;;;1.45;91.18;100662.78;4993543;28;20090;-67
2021/12/25 05:42:08;;;;;;;23.67;19.50;;;;;;;1.45;90.76;100667.06;4986101;28;20035;-67
2021/12/25 05:44:33;;;;;;;23.33;19.80;;;;;;;1.43;90.76;100664.56;4976006;28;20471;-66
2021/12/25 05:46:59;;;;;;;24.92;20.27;;;;;;;1.44;91.29;100668.78;4993699;28;20474;-67
2021/12/25 05:49:24;;;;;;;24.40;20.02;;;;;;;1.41;90.89;100666.38;4993374;28;20022;-67
2021/12/25 05:51:50;;;;;;;23.65;20.00;;;;;;;1.37;90.82;100672.50;4993682;28;20053;-66
2021/12/25 05:54:15;;;;;;;22.90;20.10;;;;;;;1.40;91.11;100674.94;4993540;28;20058;-66
2021/12/25 05:56:41;;;;;;;23.90;19.52;;;;;;;1.45;91.01;100682.41;4993431;28;20126;-66
2021/12/25 05:59:07;;;;;;;24.42;20.80;;;;;;;1.44;91.01;100676.47;4993467;28;20490;-67
2021/12/25 06:01:32;;;;;;;23.70;20.00;;;;;;;1.40;90.35;100685.16;4993112;28;20026;-66
2021/12/25 06:03:57;;;;;;;23.70;20.42;;;;;;;1.32;90.43;100677.03;4993477;28;20466;-67
2021/12/25 06:06:24;;;;;;;24.23;20.77;;;;;;;1.31;90.73;100678.72;4993657;28;20069;-67
2021/12/25 06:08:50;;;;;;;25.23;20.65;;;;;;;1.32;90.95;100677.84;4985871;28;20033;-66
2021/12/25 06:11:19;;;;;;;23.10;19.55;;;;;;;1.30;90.61;100689.84;4992911;28;20474;-66
2021/12/25 06:13:56;;;;;;;24.90;19.85;;;;;;;1.25;90.53;100690.94;4993282;28;20030;-66
2021/12/25 06:16:22;;;;;;;25.67;20.05;;;;;;;1.21;90.45;100692.00;4992980;28;20026;-67
2021/12/25 06:18:47;;;;;;;24.45;19.08;;;;;;;1.15;90.69;100689.69;4993379;28;20041;-67
2021/12/25 06:21:12;;;;;;;22.77;18.73;;;;;;;1.09;90.41;100689.97;4993310;28;20031;-67
2021/12/25 06:23:38;;;;;;;25.45;19.77;;;;;;;1.09;90.43;100695.09;4976065;28;20065;-66
2021/12/25 06:26:03;;;;;;;23.20;19.05;;;;;;;1.04;90.81;100696.13;4991197;28;20034;-67
2021/12/25 06:28:29;;;;;;;25.13;20.20;;;;;;;1.08;90.76;100698.53;4990868;28;20053;-66
2021/12/25 06:30:54;;;;;;;23.90;19.80;;;;;;;1.05;90.85;100700.34;4992818;28;20459;-67
2021/12/25 06:33:20;;;;;;;24.13;19.27;;;;;;;1.02;90.86;100695.34;4990760;28;20525;-66
2021/12/25 06:35:45;;;;;;;22.25;19.10;;;;;;;0.98;90.62;100696.41;4992857;28;20517;-67
2021/12/25 06:38:11;;;;;;;22.77;18.25;;;;;;;0.93;90.90;100695.78;4992431;28;20038;-67
2021/12/25 06:40:36;;;;;;;21.10;17.50;;;;;;;0.87;90.09;100706.25;4974939;28;20097;-66
2021/12/25 06:43:02;;;;;;;20.25;17.10;;;;;;;0.77;90.44;100694.78;4992780;28;20127;-66
2021/12/25 06:45:27;;;;;;;22.23;18.00;;;;;;;0.76;90.67;100699.06;4992695;28;20066;-66
2021/12/25 06:47:53;;;;;;;23.17;18.10;;;;;;;0.79;91.42;100695.53;4992797;28;20034;-67
2021/12/25 06:50:18;;;;;;;26.02;16.95;;;;;;;0.79;90.69;100715.97;4992629;28;20030;-65
2021/12/25 06:52:45;;;;;;;24.10;18.35;;;;;;;0.80;91.29;100715.06;4992213;28;20374;-66
2021/12/25 06:55:12;;;;;;;23.25;17.75;;;;;;;0.81;91.11;100716.75;4974852;28;20530;-66
2021/12/25 06:57:45;;;;;;;21.00;17.33;;;;;;;0.75;91.10;100715.28;4991869;28;20057;-66
2021/12/25 07:00:11;;;;;;;20.30;15.35;;;;;;;0.74;90.70;100713.59;4992273;28;20030;-66
2021/12/25 07:02:36;;;;;;;20.58;16.02;;;;;;;0.72;90.80;100717.13;4991894;28;20037;-66
2021/12/25 07:05:02;;;;;;;19.48;15.23;;;;;;;0.70;90.78;100722.28;4986310;28;20398;-65
2021/12/25 07:07:27;;;;;;;17.83;14.93;;;;;;;0.69;90.55;100724.88;4981810;28;20120;-67
2021/12/25 07:09:52;;;;;;;18.27;15.15;;;;;;;0.65;90.57;100724.22;4982195;28;20044;-65
2021/12/25 07:12:19;;;;;;;17.90;14.45;;;;;;;0.64;91.01;100730.22;4976847;28;20053;-65
2021/12/25 07:14:44;;;;;;;16.58;13.18;;;;;;;0.64;90.77;100739.59;4985665;28;20085;-65
2021/12/25 07:17:10;;;;;;;14.85;12.55;;;;;;;0.51;90.23;100731.59;4991788;28;20467;-66
2021/12/25 07:19:35;;;;;;;14.85;11.75;;;;;;;0.48;90.19;100747.88;4992118;28;20026;-65
2021/12/25 07:22:03;;;;;;;13.05;11.07;;;;;;;0.41;89.75;100743.91;4989683;28;20026;-65
2021/12/25 07:24:28;;;;;;;14.52;9.73;;;;;;;0.37;89.96;100750.03;4991536;28;20496;-66
2021/12/25 07:26:53;;;;;;;13.38;9.90;;;;;;;0.33;89.26;100761.25;4984893;28;20026;-66
2021/12/25 07:29:19;;;;;;;12.98;9.50;;;;;;;0.27;89.62;100756.38;4991647;28;20378;-66
2021/12/25 07:31:44;;;;;;;12.32;9.23;;;;;;;0.24;89.46;100759.09;4985923;28;20026;-66
2021/12/25 07:34:09;;;;;;;11.77;8.70;;;;;;;0.24;89.66;100766.72;4991513;28;20030;-67
2021/12/25 07:36:35;;;;;;;13.70;9.88;;;;;;;0.22;89.30;100768.50;4991689;28;20041;-66
2021/12/25 07:39:01;;;;;;;16.25;11.38;;;;;;;0.14;89.23;100771.34;4991503;28;20080;-66
2021/12/25 07:41:26;;;;;;;12.77;9.60;;;;;;;0.12;89.26;100767.22;4974523;28;20435;-66
2021/12/25 07:43:51;;;;;;;13.20;10.32;;;;;;;0.12;89.46;100772.31;4991114;28;20526;-66
2021/12/25 07:46:17;;;;;;;14.68;10.35;;;;;;;0.11;89.08;100779.09;4991319;28;20045;-66
2021/12/25 07:48:43;;;;;;;12.05;9.18;;;;;;;0.08;88.61;100768.22;4991455;28;20037;-66
2021/12/25 07:51:09;;;;;;;13.13;9.65;;;;;;;0.03;88.24;100775.22;4990638;28;20030;-66
2021/12/25 07:53:34;;;;;;;13.75;9.80;;;;;;;-0.02;88.70;100771.13;4985391;28;20027;-66
2021/12/25 07:56:00;;;;;;;11.93;9.38;;;;;;;-0.04;88.38;100777.19;4986063;28;20034;-66
2021/12/25 07:58:26;;;;;;;10.73;9.18;;;;;;;-0.10;88.21;100783.34;4991305;28;20026;-65
2021/12/25 08:00:51;;;;;;;13.02;10.15;;;;;;;-0.12;88.15;100789.38;4991401;28;20104;-66
2021/12/25 08:03:17;;;;;;;11.07;8.88;;;;;;;-0.10;88.71;100783.34;4990799;28;20038;-67
2021/12/25 08:05:43;;;;;;;10.88;8.77;;;;;;;-0.11;88.76;100794.44;4990672;28;20030;-66
2021/12/25 08:08:11;;;;;;;11.23;9.05;;;;;;;-0.13;88.63;100788.53;4991039;28;20045;-66
2021/12/25 08:10:40;;;;;;;11.07;9.00;;;;;;;-0.16;88.77;100796.31;4984825;28;20471;-66
2021/12/25 08:13:06;;;;;;;10.98;8.60;;;;;;;-0.19;88.40;100806.63;4989929;28;20036;-66
2021/12/25 08:15:32;;;;;;;11.00;7.82;;;;;;;-0.25;88.03;100799.19;4986201;28;20026;-66
2021/12/25 08:18:00;;;;;;;10.70;8.38;;;;;;;-0.29;88.24;100802.75;4990692;28;20514;-67
2021/12/25 08:20:27;;;;;;;11.80;8.40;;;;;;;-0.32;88.02;100797.78;4986757;28;20030;-66
2021/12/25 08:22:52;;;;;;;13.02;9.65;;;;;;;-0.29;88.54;100795.09;4984203;28;20033;-66
2021/12/25 08:25:18;;;;;;;11.20;8.73;;;;;;;-0.35;87.79;100803.78;4980597;28;20030;-65
2021/12/25 08:27:46;;;;;;;10.82;9.35;;;;;;;-0.37;87.96;100809.84;4981048;28;20131;-65
2021/12/25 08:30:16;;;;;;;12.47;9.07;;;;;;;-0.38;88.32;100809.03;4983034;28;20129;-66
2021/12/25 08:32:42;;;;;;;10.10;8.85;;;;;;;-0.37;88.16;100820.03;4983673;28;20360;-66
2021/12/25 08:35:10;;;;;;;12.20;9.15;;;;;;;-0.39;88.43;100826.91;4984251;28;20042;-66
2021/12/25 08:37:35;;;;;;;11.27;9.30;;;;;;;-0.37;88.32;100825.13;4985010;28;20053;-66
2021/12/25 08:40:02;;;;;;;11.98;9.15;;;;;;;-0.37;88.30;100836.16;4984878;28;20538;-66
2021/12/25 08:42:28;;;;;;;11.07;8.95;;;;;;;-0.39;87.73;100837.13;4987578;28;20472;-65
2021/12/25 08:47:26;;;;;;;11.25;8.95;;;;;;;-0.46;87.69;100836.50;4990597;28;20049;-66
2021/12/25 08:49:52;;;;;;;11.68;9.10;;;;;;;-0.45;87.85;100847.53;4990072;28;20030;-66
2021/12/25 08:52:19;;;;;;;11.65;9.20;;;;;;;-0.46;88.13;100850.94;4976761;28;20030;-66
2021/12/25 08:54:48;;;;;;;11.55;9.00;;;;;;;-0.46;87.36;100845.84;4994666;28;20030;-65
2021/12/25 08:57:14;;;;;;;10.15;8.38;;;;;;;-0.49;87.13;100835.78;4994252;28;20034;-65
2021/12/25 08:59:39;;;;;;;11.07;8.82;;;;;;;-0.56;87.05;100846.19;4992184;28;20033;-66
2021/12/25 09:02:09;;;;;;;10.40;8.65;;;;;;;-0.58;87.26;100842.00;4974791;28;20477;-66
2021/12/25 09:04:36;;;;;;;13.60;9.80;;;;;;;-0.58;87.64;100858.13;4977306;28;20023;-66
2021/12/25 09:07:02;;;;;;;11.95;9.25;;;;;;;-0.62;87.79;100854.03;4994058;28;20459;-65
2021/12/25 09:09:27;;;;;;;10.63;8.95;;;;;;;-0.62;87.19;100856.59;4982831;28;20046;-66
2021/12/25 09:11:53;;;;;;;12.77;8.82;;;;;;;-0.62;86.96;100861.69;4976798;28;20037;-65
2021/12/25 09:14:18;;;;;;;10.82;8.77;;;;;;;-0.62;87.14;100871.03;4993685;28;20034;-66
2021/12/25 09:16:44;;;;;;;11.25;8.68;;;;;;;-0.65;87.01;100871.97;4988179;28;20037;-65
2021/12/25 09:19:09;;;;;;;9.88;8.80;;;;;;;-0.74;86.30;100877.38;4980511;28;20450;-66
2021/12/25 09:21:35;;;;;;;12.38;9.05;;;;;;;-0.82;86.92;100866.59;4988481;28;20026;-66
2021/12/25 09:24:00;;;;;;;10.82;8.45;;;;;;;-0.81;86.70;100875.91;4987097;28;20027;-67
2021/12/25 09:26:26;;;;;;;11.70;8.82;;;;;;;-0.79;87.31;100876.72;4980024;28;20374;-66
2021/12/25 09:28:51;;;;;;;12.20;9.30;;;;;;;-0.78;87.64;100869.91;4976395;28;20046;-66
2021/12/25 09:31:17;;;;;;;11.13;8.70;;;;;;;-0.80;87.57;100869.97;4989557;28;20477;-66
2021/12/25 09:33:43;;;;;;;12.70;8.57;;;;;;;-0.82;87.07;100869.16;4983962;28;20109;-66
2021/12/25 09:36:08;;;;;;;12.70;8.57;;;;;;;-0.79;87.18;100863.97;4978940;28;20586;-66
2021/12/25 09:38:35;;;;;;;10.95;8.73;;;;;;;-0.85;86.26;100869.28;4974368;28;20463;-66
2021/12/25 09:41:02;;;;;;;11.52;8.82;;;;;;;-0.89;86.36;100872.81;4980863;28;20478;-66
2021/12/25 09:43:28;;;;;;;13.88;9.15;;;;;;;-0.88;87.10;100877.00;4973207;28;20363;-66
2021/12/25 09:45:54;;;;;;;11.73;8.88;;;;;;;-0.90;86.50;100881.31;4983165;28;20101;-66
2021/12/25 09:48:20;;;;;;;11.98;9.00;;;;;;;-0.89;86.87;100877.88;4987898;28;20030;-66
2021/12/25 09:50:45;;;;;;;11.27;8.80;;;;;;;-0.92;86.79;100867.78;4988635;28;20061;-66
2021/12/25 09:53:13;;;;;;;11.43;9.05;;;;;;;-0.96;86.78;100867.09;4977015;28;20498;-66
2021/12/25 09:55:39;;;;;;;11.25;8.60;;;;;;;-0.95;86.43;100873.00;4972404;28;20081;-66
2021/12/25 09:58:06;;;;;;;12.68;9.13;;;;;;;-0.99;86.16;100867.16;4985303;28;20510;-66
2021/12/25 10:00:35;;;;;;;11.43;9.05;;;;;;;-1.01;86.12;100874.03;4980282;28;20033;-66
2021/12/25 10:03:01;;;;;;;11.40;8.77;;;;;;;-1.04;86.08;100880.94;4984466;28;20026;-67
2021/12/25 10:05:36;;;;;;;11.80;9.00;;;;;;;-1.03;86.66;100882.59;4993575;28;20072;-66
2021/12/25 10:08:11;;;;;;;11.43;9.00;;;;;;;-1.01;86.98;100883.38;4992864;28;20080;-66
2021/12/25 10:10:43;;;;;;;10.40;8.27;;;;;;;-1.03;86.36;100885.13;4992961;28;20071;-66
2021/12/25 10:13:28;;;;;;;11.15;8.73;;;;;;;-1.00;86.33;100900.31;4986993;28;20103;-65
2021/12/25 10:16:01;;;;;;;12.68;9.35;;;;;;;-1.06;86.60;100901.34;4971663;28;20466;-67
2021/12/25 10:18:34;;;;;;;11.68;8.73;;;;;;;-1.04;86.29;100906.38;4984213;28;20069;-66
2021/12/25 10:21:35;;;;;;;12.30;9.18;;;;;;;-0.97;86.62;100905.31;4986082;28;20069;-66
2021/12/25 10:24:19;;;;;;;11.32;9.02;;;;;;;-0.98;86.63;100899.38;4892309;29;20129;-66
2021/12/25 10:26:48;;;;;;;11.73;9.00;;;;;;;-0.96;86.71;100896.81;4974479;28;20074;-66
2021/12/25 10:29:28;;;;;;;12.25;8.50;;;;;;;-0.94;86.22;100897.56;4982592;28;20081;-66
2021/12/25 10:31:58;;;;;;;12.88;8.52;;;;;;;-0.96;85.69;100901.91;4991995;28;20041;-67
2021/12/25 10:34:26;;;;;;;10.25;7.78;;;;;;;-0.98;85.91;100904.47;4984968;28;20126;-66
2021/12/25 10:36:52;;;;;;;11.33;7.83;;;;;;;-0.92;85.97;100903.44;4985466;28;20863;-66
2021/12/25 10:39:27;;;;;;;9.82;7.57;;;;;;;-0.88;86.09;100899.91;4992109;28;20341;-67
2021/12/25 10:42:11;;;;;;;10.10;7.00;;;;;;;-0.90;85.74;100897.44;4983749;28;20378;-67
2021/12/25 10:44:55;;;;;;;11.02;7.47;;;;;;;-0.94;85.73;100895.03;4990002;28;20038;-67
2021/12/25 10:47:25;;;;;;;9.65;6.55;;;;;;;-0.94;85.18;100897.56;4992474;28;20448;-66
2021/12/25 10:49:56;;;;;;;8.63;6.03;;;;;;;-0.97;84.86;100900.25;4991969;28;20042;-66
2021/12/25 10:52:26;;;;;;;8.88;6.25;;;;;;;-0.99;84.49;100891.81;4992416;28;20030;-66
2021/12/25 10:54:59;;;;;;;11.52;9.07;;;;;;;-0.96;85.69;100896.81;4974892;28;20096;-66
2021/12/25 10:57:31;;;;;;;10.10;7.00;;;;;;;-0.98;85.18;100899.38;4991310;28;20120;-67
2021/12/25 10:59:57;;;;;;;8.75;6.25;;;;;;;-0.97;84.84;100905.31;4991317;28;20433;-66
2021/12/25 11:02:35;;;;;;;8.27;6.65;;;;;;;-0.93;84.84;100896.69;4980462;28;20065;-66
2021/12/25 11:05:15;;;;;;;8.90;6.25;;;;;;;-0.86;85.06;100898.13;4991846;28;20038;-66
2021/12/25 11:07:40;;;;;;;8.60;5.90;;;;;;;-0.81;85.26;100896.28;4991980;28;20052;-66
2021/12/25 11:10:20;;;;;;;11.10;6.45;;;;;;;-0.72;85.64;100895.97;4991956;28;20113;-66
2021/12/25 11:12:45;;;;;;;7.65;5.38;;;;;;;-0.74;83.56;100897.75;4986663;28;20069;-67
2021/12/25 11:15:21;;;;;;;7.43;5.07;;;;;;;-0.71;84.10;100902.72;4991569;28;20034;-66
2021/12/25 11:18:06;;;;;;;8.13;5.47;;;;;;;-0.66;85.24;100900.03;5067911;28;20394;-64
2021/12/25 11:20:36;;;;;;;9.43;5.85;;;;;;;-0.61;84.98;100899.00;5065206;28;20038;-66
2021/12/25 11:23:05;;;;;;;8.95;5.88;;;;;;;-0.55;84.68;100893.69;5051861;28;20461;-66
2021/12/25 11:25:33;;;;;;;8.10;5.13;;;;;;;-0.51;84.65;100901.25;5056336;28;20328;-67
2021/12/25 11:28:01;;;;;;;7.50;4.95;;;;;;;-0.46;84.11;100906.97;5051371;28;20045;-67
2021/12/25 11:30:31;;;;;;;9.20;4.05;;;;;;;-0.48;83.26;100903.66;5052430;28;20039;-67
2021/12/25 11:32:58;;;;;;;6.40;4.35;;;;;;;-0.52;82.88;100897.84;5060852;28;20029;-67
2021/12/25 11:35:24;;;;;;;7.10;3.80;;;;;;;-0.52;82.84;100897.00;5054521;28;20037;-67
2021/12/25 11:37:51;;;;;;;5.32;3.33;;;;;;;-0.53;82.58;100901.28;5058894;28;20028;-67
2021/12/25 11:40:21;;;;;;;5.80;3.80;;;;;;;-0.54;82.82;100895.34;5057090;28;20046;-66
2021/12/25 11:42:49;;;;;;;7.95;4.35;;;;;;;-0.54;82.50;100894.53;5047107;28;20029;-67
2021/12/25 11:45:21;;;;;;;6.68;3.53;;;;;;;-0.55;82.00;100892.88;5061316;28;20295;-67
2021/12/25 11:47:53;;;;;;;5.75;3.75;;;;;;;-0.56;81.63;100884.38;5046927;28;20025;-67
2021/12/25 11:50:40;;;;;;;6.30;3.65;;;;;;;-0.54;81.97;100874.97;5059009;28;20017;-66
2021/12/25 11:53:41;;;;;;;5.75;3.58;;;;;;;-0.49;82.63;100873.97;5046172;28;20020;-66
2021/12/25 11:56:20;;;;;;;6.22;3.45;;;;;;;-0.44;82.06;100869.56;5066616;28;20032;-67
2021/12/25 11:58:51;;;;;;;5.82;3.30;;;;;;;-0.40;82.19;100868.53;5041444;28;20029;-67
2021/12/25 12:01:26;;;;;;;5.30;3.10;;;;;;;-0.34;82.20;100876.00;5064968;28;20033;-67
2021/12/25 12:03:56;;;;;;;6.25;3.35;;;;;;;-0.31;82.42;100875.88;5054547;28;20100;-66
2021/12/25 12:06:45;;;;;;;7.22;3.40;;;;;;;-0.23;82.26;100878.13;5065569;28;20048;-67
2021/12/25 12:09:18;;;;;;;5.75;2.83;;;;;;;-0.24;80.65;100877.31;5046805;28;20124;-66
2021/12/25 12:11:46;;;;;;;7.43;3.40;;;;;;;-0.22;81.15;100878.09;5039273;28;20041;-67
2021/12/25 12:14:27;;;;;;;4.95;2.90;;;;;;;-0.18;81.34;100883.91;5049026;28;20059;-67
2021/12/25 12:17:01;;;;;;;6.50;3.40;;;;;;;-0.19;81.40;100880.53;5059749;28;20057;-67
2021/12/25 12:19:29;;;;;;;5.60;3.45;;;;;;;-0.19;81.03;100887.34;5057494;28;20625;-67
2021/12/25 12:21:55;;;;;;;5.40;2.78;;;;;;;-0.21;80.59;100877.22;5050474;28;20040;-67
2021/12/25 12:24:48;;;;;;;5.65;3.35;;;;;;;-0.26;80.35;100868.91;5057734;28;20028;-66
2021/12/25 12:27:52;;;;;;;7.00;3.15;;;;;;;-0.17;81.55;100878.78;5062399;28;20074;-67
2021/12/25 12:30:38;;;;;;;4.65;3.00;;;;;;;-0.20;80.78;100866.13;4990620;28;20062;-66
2021/12/25 12:33:24;;;;;;;5.82;3.03;;;;;;;-0.20;80.89;100866.13;5036834;28;20037;-66